Time;durP1;ratioP1;P1;durP2;ratioP2;P2;SDS_P1;SDS_P2;PMS_P1;PMS_P2;Temp;Humidity;BMP_temperature;BMP_pressure;BME280_temperature;BME280_humidity;BME280_pressure;Samples;Min_cycle;Max_cycle;Signal;HPM_P1;HPM_P2
2023/03/05 00:01:52;;;;;;;;;;;;;;;;;;5019232;28;19913;-55
2023/03/05 00:04:18;;;;;;;;;;;;;;;;;;5031576;28;19913;-57
2023/03/05 00:06:44;;;;;;;;;;;;;;;;;;5031523;28;19956;-57
2023/03/05 00:09:10;;;;;;;;;;;;;;;;;;5031848;28;19913;-56
2023/03/05 00:11:36;;;;;;;;;;;;;;;;;;5031368;28;20336;-52
2023/03/05 00:14:05;;;;;;;;;;;;;;;;;;5031204;28;19943;-56
2023/03/05 00:16:31;;;;;;;;;;;;;;;;;;5021135;28;19910;-56
2023/03/05 00:18:57;;;;;;;;;;;;;;;;;;5012935;28;19917;-57
2023/03/05 00:21:23;;;;;;;;;;;;;;;;;;5021973;28;20005;-56
2023/03/05 00:23:52;;;;;;;;;;;;;;;;;;5031111;28;20686;-57
2023/03/05 00:26:17;;;;;;;;;;;;;;;;;;5030524;28;19925;-57
2023/03/05 00:28:46;;;;;;;;;;;;;;;;;;5030840;28;20381;-57
2023/03/05 00:31:12;;;;;;;;;;;;;;;;;;5031869;28;19909;-55
2023/03/05 00:33:37;;;;;;;;;;;;;;;;;;5030997;28;20729;-57
2023/03/05 00:36:03;;;;;;;;;;;;;;;;;;5023190;28;20034;-57
2023/03/05 00:38:29;;;;;;;;;;;;;;;;;;5027601;28;20397;-57
2023/03/05 00:40:55;;;;;;;;;;;;;;;;;;5030214;28;19913;-57
2023/03/05 00:43:21;;;;;;;;;;;;;;;;;;5022739;28;20347;-57
2023/03/05 00:45:47;;;;;;;;;;;;;;;;;;5028898;28;19921;-56
2023/03/05 00:48:13;;;;;;;;;;;;;;;;;;5030913;28;19916;-55
2023/03/05 00:50:39;;;;;;;;;;;;;;;;;;5031075;28;19996;-56
2023/03/05 00:53:04;;;;;;;;;;;;;;;;;;5030862;28;19909;-57
2023/03/05 00:55:30;;;;;;;;;;;;;;;;;;5030583;28;19913;-57
2023/03/05 00:57:57;;;;;;;;;;;;;;;;;;5030671;28;19913;-57
2023/03/05 01:00:22;;;;;;;;;;;;;;;;;;5011410;28;20386;-57
2023/03/05 01:02:48;;;;;;;;;;;;;;;;;;5011901;28;20310;-57
2023/03/05 01:05:14;;;;;;;;;;;;;;;;;;5016889;28;19921;-57
2023/03/05 01:07:40;;;;;;;;;;;;;;;;;;5023808;28;20002;-58
2023/03/05 01:10:06;;;;;;;;;;;;;;;;;;5030138;28;19909;-57
2023/03/05 01:12:32;;;;;;;;;;;;;;;;;;5030395;28;19913;-56
2023/03/05 01:14:58;;;;;;;;;;;;;;;;;;5030162;28;19913;-56
2023/03/05 01:17:24;;;;;;;;;;;;;;;;;;5023681;28;19918;-58
2023/03/05 01:19:49;;;;;;;;;;;;;;;;;;5030516;28;19913;-57
2023/03/05 01:22:15;;;;;;;;;;;;;;;;;;5030266;28;19919;-57
2023/03/05 01:24:41;;;;;;;;;;;;;;;;;;5029617;28;19913;-56
2023/03/05 01:27:07;;;;;;;;;;;;;;;;;;5029956;28;20374;-57
2023/03/05 01:29:33;;;;;;;;;;;;;;;;;;5030270;28;19913;-58
2023/03/05 01:32:01;;;;;;;;;;;;;;;;;;5030072;28;19913;-57
2023/03/05 01:34:26;;;;;;;;;;;;;;;;;;5030090;28;19955;-55
2023/03/05 01:36:52;;;;;;;;;;;;;;;;;;5013930;28;19956;-53
2023/03/05 01:39:18;;;;;;;;;;;;;;;;;;5025959;28;20681;-56
2023/03/05 01:41:44;;;;;;;;;;;;;;;;;;5029087;28;19913;-55
2023/03/05 01:44:10;;;;;;;;;;;;;;;;;;5029599;28;19956;-57
2023/03/05 01:46:36;;;;;;;;;;;;;;;;;;5013626;28;19913;-57
2023/03/05 01:49:02;;;;;;;;;;;;;;;;;;5011028;28;19910;-57
2023/03/05 01:51:28;;;;;;;;;;;;;;;;;;5010794;28;19960;-57
2023/03/05 01:53:54;;;;;;;;;;;;;;;;;;5010348;28;19913;-56
2023/03/05 01:56:19;;;;;;;;;;;;;;;;;;5010734;28;19920;-56
2023/03/05 01:58:45;;;;;;;;;;;;;;;;;;5012439;28;19964;-57
2023/03/05 02:01:11;;;;;;;;;;;;;;;;;;5010767;28;19913;-56
2023/03/05 02:03:37;;;;;;;;;;;;;;;;;;5010265;28;19925;-57
2023/03/05 02:06:03;;;;;;;;;;;;;;;;;;5023010;28;20017;-56
2023/03/05 02:08:29;;;;;;;;;;;;;;;;;;5022715;28;19967;-55
2023/03/05 02:10:55;;;;;;;;;;;;;;;;;;5029025;28;19958;-57
2023/03/05 02:13:21;;;;;;;;;;;;;;;;;;5017079;28;19910;-57
2023/03/05 02:15:48;;;;;;;;;;;;;;;;;;5010440;28;19921;-57
2023/03/05 02:18:14;;;;;;;;;;;;;;;;;;5010045;28;19914;-57
2023/03/05 02:20:40;;;;;;;;;;;;;;;;;;5010461;28;19998;-57
2023/03/05 02:23:06;;;;;;;;;;;;;;;;;;5009870;28;19909;-57
2023/03/05 02:25:32;;;;;;;;;;;;;;;;;;5014518;28;19933;-56
2023/03/05 02:27:58;;;;;;;;;;;;;;;;;;5012892;28;20386;-57
2023/03/05 02:30:23;;;;;;;;;;;;;;;;;;5022643;28;19909;-57
2023/03/05 02:32:49;;;;;;;;;;;;;;;;;;5025438;28;20389;-56
2023/03/05 02:35:15;;;;;;;;;;;;;;;;;;5011810;28;20004;-57
2023/03/05 02:37:42;;;;;;;;;;;;;;;;;;5009872;28;19914;-56
2023/03/05 02:40:07;;;;;;;;;;;;;;;;;;5025752;28;19909;-57
2023/03/05 02:42:34;;;;;;;;;;;;;;;;;;5029245;28;19921;-54
2023/03/05 02:45:00;;;;;;;;;;;;;;;;;;5022219;28;19941;-56
2023/03/05 02:47:26;;;;;;;;;;;;;;;;;;5029137;28;19909;-56
2023/03/05 02:49:51;;;;;;;;;;;;;;;;;;5026998;28;19913;-57
2023/03/05 02:52:17;;;;;;;;;;;;;;;;;;5024147;28;20032;-56
2023/03/05 02:54:43;;;;;;;;;;;;;;;;;;5028752;28;19925;-58
2023/03/05 02:57:09;;;;;;;;;;;;;;;;;;5028718;28;19974;-57
2023/03/05 02:59:35;;;;;;;;;;;;;;;;;;5016011;28;20007;-57
2023/03/05 03:02:01;;;;;;;;;;;;;;;;;;5028542;28;20251;-58
2023/03/05 03:04:27;;;;;;;;;;;;;;;;;;5028410;28;19913;-56
2023/03/05 03:06:53;;;;;;;;;;;;;;;;;;5028623;28;19920;-57
2023/03/05 03:09:19;;;;;;;;;;;;;;;;;;5009795;28;19933;-57
2023/03/05 03:11:45;;;;;;;;;;;;;;;;;;5009523;28;20291;-57
2023/03/05 03:14:10;;;;;;;;;;;;;;;;;;5014034;28;19949;-57
2023/03/05 03:16:36;;;;;;;;;;;;;;;;;;5009567;28;20461;-56
2023/03/05 03:19:02;;;;;;;;;;;;;;;;;;5015550;28;19920;-56
2023/03/05 03:21:28;;;;;;;;;;;;;;;;;;5009856;28;19923;-56
2023/03/05 03:23:54;;;;;;;;;;;;;;;;;;5020136;28;19913;-56
2023/03/05 03:26:20;;;;;;;;;;;;;;;;;;5027988;28;19929;-56
2023/03/05 03:28:46;;;;;;;;;;;;;;;;;;5028240;28;19913;-55
2023/03/05 03:31:12;;;;;;;;;;;;;;;;;;5028582;28;20378;-56
2023/03/05 03:33:37;;;;;;;;;;;;;;;;;;5028096;28;19916;-57
2023/03/05 03:36:03;;;;;;;;;;;;;;;;;;5018114;28;19945;-58
2023/03/05 03:38:29;;;;;;;;;;;;;;;;;;5012371;28;19910;-57
2023/03/05 03:40:55;;;;;;;;;;;;;;;;;;5009100;28;20713;-57
2023/03/05 03:43:21;;;;;;;;;;;;;;;;;;5009264;28;20003;-58
2023/03/05 03:45:47;;;;;;;;;;;;;;;;;;5010528;28;19929;-57
2023/03/05 03:48:13;;;;;;;;;;;;;;;;;;5016125;28;19992;-57
2023/03/05 03:50:39;;;;;;;;;;;;;;;;;;5010703;28;19914;-57
2023/03/05 03:53:05;;;;;;;;;;;;;;;;;;5027797;28;19940;-57
2023/03/05 03:55:31;;;;;;;;;;;;;;;;;;5013831;28;19910;-57
2023/03/05 03:57:56;;;;;;;;;;;;;;;;;;5008663;28;19910;-57
2023/03/05 04:00:22;;;;;;;;;;;;;;;;;;5009626;28;20020;-56
2023/03/05 04:02:48;;;;;;;;;;;;;;;;;;5008650;28;19909;-56
2023/03/05 04:05:14;;;;;;;;;;;;;;;;;;5017645;28;19925;-57
2023/03/05 04:07:40;;;;;;;;;;;;;;;;;;5012439;28;19917;-56
2023/03/05 04:10:06;;;;;;;;;;;;;;;;;;5012902;28;19913;-56
2023/03/05 04:12:32;;;;;;;;;;;;;;;;;;5012289;28;19964;-56
2023/03/05 04:14:58;;;;;;;;;;;;;;;;;;5012353;28;20409;-56
2023/03/05 04:17:24;;;;;;;;;;;;;;;;;;5012386;28;19910;-56
2023/03/05 04:19:49;;;;;;;;;;;;;;;;;;5013899;28;20441;-56
2023/03/05 04:22:15;;;;;;;;;;;;;;;;;;5013396;28;19968;-57
2023/03/05 04:24:41;;;;;;;;;;;;;;;;;;5012544;28;19969;-57
2023/03/05 04:27:07;;;;;;;;;;;;;;;;;;5012144;28;19925;-57
2023/03/05 04:29:33;;;;;;;;;;;;;;;;;;5012657;28;19913;-57
2023/03/05 04:31:59;;;;;;;;;;;;;;;;;;5011621;28;20402;-56
2023/03/05 04:34:25;;;;;;;;;;;;;;;;;;5015549;28;20301;-56
2023/03/05 04:36:51;;;;;;;;;;;;;;;;;;5014531;28;19917;-56
2023/03/05 04:39:19;;;;;;;;;;;;;;;;;;5012350;28;19921;-56
2023/03/05 04:41:45;;;;;;;;;;;;;;;;;;5011694;28;20301;-57
2023/03/05 04:44:11;;;;;;;;;;;;;;;;;;5028239;28;19909;-57
2023/03/05 04:46:37;;;;;;;;;;;;;;;;;;5030497;28;19936;-57
2023/03/05 04:49:03;;;;;;;;;;;;;;;;;;5031137;28;19960;-57
2023/03/05 04:51:29;;;;;;;;;;;;;;;;;;5030517;28;19956;-56
2023/03/05 04:53:54;;;;;;;;;;;;;;;;;;5015937;28;19920;-56
2023/03/05 04:56:20;;;;;;;;;;;;;;;;;;5019713;28;19917;-56
2023/03/05 04:58:46;;;;;;;;;;;;;;;;;;5030425;28;19916;-57
2023/03/05 05:01:12;;;;;;;;;;;;;;;;;;5030122;28;19952;-56
2023/03/05 05:03:38;;;;;;;;;;;;;;;;;;5030529;28;19966;-56
2023/03/05 05:06:04;;;;;;;;;;;;;;;;;;5030578;28;20424;-56
2023/03/05 05:08:30;;;;;;;;;;;;;;;;;;5023897;28;19956;-56
2023/03/05 05:10:56;;;;;;;;;;;;;;;;;;5016841;28;19914;-57
2023/03/05 05:13:22;;;;;;;;;;;;;;;;;;5030604;28;19917;-57
2023/03/05 05:15:48;;;;;;;;;;;;;;;;;;5029177;28;19928;-57
2023/03/05 05:18:13;;;;;;;;;;;;;;;;;;5030248;28;20393;-56
2023/03/05 05:20:39;;;;;;;;;;;;;;;;;;5030362;28;19913;-56
2023/03/05 05:23:05;;;;;;;;;;;;;;;;;;5023881;28;20033;-57
2023/03/05 05:25:31;;;;;;;;;;;;;;;;;;5029978;28;19917;-56
2023/03/05 05:27:57;;;;;;;;;;;;;;;;;;5030119;28;19971;-56
2023/03/05 05:30:23;;;;;;;;;;;;;;;;;;5029561;28;19991;-55
2023/03/05 05:32:49;;;;;;;;;;;;;;;;;;5029836;28;20409;-57
2023/03/05 05:35:15;;;;;;;;;;;;;;;;;;5020278;28;19952;-53
2023/03/05 05:37:41;;;;;;;;;;;;;;;;;;5011387;28;19917;-55
2023/03/05 05:40:07;;;;;;;;;;;;;;;;;;5010852;28;19917;-56
2023/03/05 05:42:33;;;;;;;;;;;;;;;;;;5013266;28;19913;-56
2023/03/05 05:44:58;;;;;;;;;;;;;;;;;;5020659;28;20274;-57
2023/03/05 05:47:24;;;;;;;;;;;;;;;;;;5029634;28;19913;-56
2023/03/05 05:49:50;;;;;;;;;;;;;;;;;;5029978;28;19920;-57
2023/03/05 05:52:16;;;;;;;;;;;;;;;;;;5029156;28;19928;-56
2023/03/05 05:54:42;;;;;;;;;;;;;;;;;;5029444;28;19916;-56
2023/03/05 05:57:08;;;;;;;;;;;;;;;;;;5029393;28;20497;-53
2023/03/05 05:59:34;;;;;;;;;;;;;;;;;;5029398;28;19975;-57
2023/03/05 06:02:00;;;;;;;;;;;;;;;;;;5021559;28;19968;-57
2023/03/05 06:04:26;;;;;;;;;;;;;;;;;;5010405;28;19916;-57
2023/03/05 06:06:52;;;;;;;;;;;;;;;;;;5011129;28;19917;-57
2023/03/05 06:09:17;;;;;;;;;;;;;;;;;;5029663;28;20370;-57
2023/03/05 06:11:43;;;;;;;;;;;;;;;;;;5029159;28;19916;-56
2023/03/05 06:14:09;;;;;;;;;;;;;;;;;;5028952;28;19955;-56
2023/03/05 06:16:35;;;;;;;;;;;;;;;;;;5023008;28;19913;-56
2023/03/05 06:19:03;;;;;;;;;;;;;;;;;;5029207;28;19913;-57
2023/03/05 06:21:29;;;;;;;;;;;;;;;;;;5029258;28;19939;-57
2023/03/05 06:23:55;;;;;;;;;;;;;;;;;;5029315;28;19913;-57
2023/03/05 06:26:21;;;;;;;;;;;;;;;;;;5028590;28;19936;-57
2023/03/05 06:28:46;;;;;;;;;;;;;;;;;;5027996;28;19913;-57
2023/03/05 06:31:12;;;;;;;;;;;;;;;;;;5029064;28;19956;-57
2023/03/05 06:33:38;;;;;;;;;;;;;;;;;;5028683;28;19912;-56
2023/03/05 06:36:04;;;;;;;;;;;;;;;;;;5018390;28;19909;-56
2023/03/05 06:38:30;;;;;;;;;;;;;;;;;;5010086;28;19917;-57
2023/03/05 06:40:56;;;;;;;;;;;;;;;;;;5019852;28;19917;-57
2023/03/05 06:43:22;;;;;;;;;;;;;;;;;;5028191;28;19913;-57
2023/03/05 06:45:48;;;;;;;;;;;;;;;;;;5013606;28;19959;-56
2023/03/05 06:48:14;;;;;;;;;;;;;;;;;;5028839;28;20423;-56
2023/03/05 06:50:39;;;;;;;;;;;;;;;;;;5025859;28;19913;-56
2023/03/05 06:53:05;;;;;;;;;;;;;;;;;;5008331;28;19917;-55
2023/03/05 06:55:38;;;;;;;;;;;;;;;;;;5009974;28;19967;-56
2023/03/05 06:58:04;;;;;;;;;;;;;;;;;;5012497;28;20342;-56
2023/03/05 07:00:30;;;;;;;;;;;;;;;;;;5017089;28;20055;-57
2023/03/05 07:02:56;;;;;;;;;;;;;;;;;;5009537;28;19920;-56
2023/03/05 07:05:21;;;;;;;;;;;;;;;;;;5009251;28;19918;-56
2023/03/05 07:07:47;;;;;;;;;;;;;;;;;;5009626;28;19913;-57
2023/03/05 07:10:13;;;;;;;;;;;;;;;;;;5009565;28;19914;-57
2023/03/05 07:12:40;;;;;;;;;;;;;;;;;;5009633;28;19910;-55
2023/03/05 07:15:06;;;;;;;;;;;;;;;;;;5009852;28;19910;-56
2023/03/05 07:17:32;;;;;;;;;;;;;;;;;;5009688;28;19916;-55
2023/03/05 07:19:58;;;;;;;;;;;;;;;;;;5009534;28;20404;-56
2023/03/05 07:22:24;;;;;;;;;;;;;;;;;;5009891;28;19913;-57
2023/03/05 07:24:50;;;;;;;;;;;;;;;;;;5015797;28;20301;-56
2023/03/05 07:27:16;;;;;;;;;;;;;;;;;;5025649;28;19931;-57
2023/03/05 07:29:42;;;;;;;;;;;;;;;;;;5028660;28;19937;-56
2023/03/05 07:32:07;;;;;;;;;;;;;;;;;;5028475;28;19909;-56
2023/03/05 07:34:33;;;;;;;;;;;;;;;;;;5027798;28;19913;-55
2023/03/05 07:36:59;;;;;;;;;;;;;;;;;;5009798;28;19917;-56
2023/03/05 07:39:25;;;;;;;;;;;;;;;;;;5010506;28;20008;-56
2023/03/05 07:41:51;;;;;;;;;;;;;;;;;;5013503;28;19920;-54
2023/03/05 07:44:17;;;;;;;;;;;;;;;;;;5011820;28;19913;-57
2023/03/05 07:46:43;;;;;;;;;;;;;;;;;;5017060;28;19918;-56
2023/03/05 07:49:09;;;;;;;;;;;;;;;;;;5013254;28;19913;-55
2023/03/05 07:51:35;;;;;;;;;;;;;;;;;;5012580;28;20008;-57
2023/03/05 07:54:01;;;;;;;;;;;;;;;;;;5012605;28;20398;-56
2023/03/05 07:56:30;;;;;;;;;;;;;;;;;;5012420;28;19913;-57
2023/03/05 07:58:56;;;;;;;;;;;;;;;;;;5021940;28;20381;-57
2023/03/05 08:01:22;;;;;;;;;;;;;;;;;;5031192;28;19913;-55
2023/03/05 08:03:48;;;;;;;;;;;;;;;;;;5031518;28;19967;-57
2023/03/05 08:06:14;;;;;;;;;;;;;;;;;;5031099;28;19925;-57
2023/03/05 08:08:40;;;;;;;;;;;;;;;;;;5031271;28;19909;-57
2023/03/05 08:11:05;;;;;;;;;;;;;;;;;;5030926;28;20711;-57
2023/03/05 08:13:31;;;;;;;;;;;;;;;;;;5029570;28;19958;-56
2023/03/05 08:15:57;;;;;;;;;;;;;;;;;;5030857;28;19916;-57
2023/03/05 08:18:23;;;;;;;;;;;;;;;;;;5031255;28;19935;-57
2023/03/05 08:20:49;;;;;;;;;;;;;;;;;;5030738;28;20377;-56
2023/03/05 08:23:15;;;;;;;;;;;;;;;;;;5030509;28;19952;-57
2023/03/05 08:25:41;;;;;;;;;;;;;;;;;;5030853;28;19948;-56
2023/03/05 08:28:07;;;;;;;;;;;;;;;;;;5030687;28;19932;-56
2023/03/05 08:30:32;;;;;;;;;;;;;;;;;;5031261;28;20008;-57
2023/03/05 08:32:58;;;;;;;;;;;;;;;;;;5031067;28;19909;-57
2023/03/05 08:35:24;;;;;;;;;;;;;;;;;;5024629;28;19914;-57
2023/03/05 08:37:50;;;;;;;;;;;;;;;;;;5024137;28;19959;-57
2023/03/05 08:40:16;;;;;;;;;;;;;;;;;;5030670;28;19928;-57
2023/03/05 08:42:42;;;;;;;;;;;;;;;;;;5024240;28;20004;-57
2023/03/05 08:45:08;;;;;;;;;;;;;;;;;;5026089;28;20008;-57
2023/03/05 08:47:34;;;;;;;;;;;;;;;;;;5011387;28;20381;-57
2023/03/05 08:50:00;;;;;;;;;;;;;;;;;;5013502;28;19924;-56
2023/03/05 08:52:26;;;;;;;;;;;;;;;;;;5021037;28;19985;-55
2023/03/05 08:54:52;;;;;;;;;;;;;;;;;;5013065;28;19914;-56
2023/03/05 08:57:18;;;;;;;;;;;;;;;;;;5026575;28;20713;-61
2023/03/05 08:59:44;;;;;;;;;;;;;;;;;;5011745;28;20024;-61
2023/03/05 09:02:10;;;;;;;;;;;;;;;;;;5022344;28;19913;-64
2023/03/05 09:04:36;;;;;;;;;;;;;;;;;;5012811;28;19971;-64
2023/03/05 09:07:02;;;;;;;;;;;;;;;;;;5020271;28;19921;-65
2023/03/05 09:09:28;;;;;;;;;;;;;;;;;;5025929;28;19928;-63
2023/03/05 09:11:54;;;;;;;;;;;;;;;;;;5019475;28;20397;-63
2023/03/05 09:14:20;;;;;;;;;;;;;;;;;;5014817;28;19917;-64
2023/03/05 09:16:46;;;;;;;;;;;;;;;;;;5023089;28;19933;-65
2023/03/05 09:19:13;;;;;;;;;;;;;;;;;;5012132;28;19960;-64
2023/03/05 09:21:39;;;;;;;;;;;;;;;;;;5011227;28;19925;-65
2023/03/05 09:24:05;;;;;;;;;;;;;;;;;;5015469;28;19963;-65
2023/03/05 09:26:31;;;;;;;;;;;;;;;;;;5011307;28;20294;-65
2023/03/05 09:28:57;;;;;;;;;;;;;;;;;;5016070;28;19917;-63
2023/03/05 09:31:23;;;;;;;;;;;;;;;;;;5026565;28;20332;-64
2023/03/05 09:33:49;;;;;;;;;;;;;;;;;;5029403;28;19940;-64
2023/03/05 09:36:15;;;;;;;;;;;;;;;;;;5021742;28;20271;-64
2023/03/05 09:38:41;;;;;;;;;;;;;;;;;;5009349;28;19913;-64
2023/03/05 09:41:07;;;;;;;;;;;;;;;;;;5009945;28;19920;-64
2023/03/05 09:43:33;;;;;;;;;;;;;;;;;;5022872;28;19917;-65
2023/03/05 09:45:58;;;;;;;;;;;;;;;;;;5010278;28;19961;-64
2023/03/05 09:48:24;;;;;;;;;;;;;;;;;;5014813;28;19913;-64
2023/03/05 09:50:50;;;;;;;;;;;;;;;;;;5015436;28;19913;-65
2023/03/05 09:53:16;;;;;;;;;;;;;;;;;;5014139;28;20445;-62
2023/03/05 09:55:42;;;;;;;;;;;;;;;;;;5014839;28;19913;-64
2023/03/05 09:58:08;;;;;;;;;;;;;;;;;;5010958;28;20012;-63
2023/03/05 10:00:34;;;;;;;;;;;;;;;;;;5018528;28;19968;-64
2023/03/05 10:03:00;;;;;;;;;;;;;;;;;;5022131;28;20357;-63
2023/03/05 10:05:26;;;;;;;;;;;;;;;;;;5023692;28;20316;-64
2023/03/05 10:07:52;;;;;;;;;;;;;;;;;;5006523;28;19917;-63
2023/03/05 10:10:20;;;;;;;;;;;;;;;;;;5008850;28;20310;-65
2023/03/05 10:12:46;;;;;;;;;;;;;;;;;;5015123;28;19914;-63
2023/03/05 10:15:12;;;;;;;;;;;;;;;;;;5009155;28;19964;-62
2023/03/05 10:17:38;;;;;;;;;;;;;;;;;;5014718;28;19913;-64
2023/03/05 10:20:04;;;;;;;;;;;;;;;;;;5010211;28;20002;-63
2023/03/05 10:22:29;;;;;;;;;;;;;;;;;;5025796;28;20390;-64
2023/03/05 10:24:55;;;;;;;;;;;;;;;;;;5027253;28;20282;-63
2023/03/05 10:27:21;;;;;;;;;;;;;;;;;;5018825;28;19930;-64
2023/03/05 10:29:47;;;;;;;;;;;;;;;;;;5007951;28;20390;-64
2023/03/05 10:32:13;;;;;;;;;;;;;;;;;;5007965;28;19948;-64
2023/03/05 10:34:39;;;;;;;;;;;;;;;;;;5008209;28;19913;-64
2023/03/05 10:37:05;;;;;;;;;;;;;;;;;;5019153;28;19917;-65
2023/03/05 10:39:31;;;;;;;;;;;;;;;;;;5011420;28;19913;-64
2023/03/05 10:42:01;;;;;;;;;;;;;;;;;;5008337;28;20374;-63
2023/03/05 10:44:27;;;;;;;;;;;;;;;;;;5008208;28;19971;-64
2023/03/05 10:46:52;;;;;;;;;;;;;;;;;;5007480;28;19929;-64
2023/03/05 10:49:18;;;;;;;;;;;;;;;;;;5019916;28;20262;-62
2023/03/05 10:51:44;;;;;;;;;;;;;;;;;;5027174;28;19948;-63
2023/03/05 10:54:10;;;;;;;;;;;;;;;;;;5026927;28;19913;-64
2023/03/05 10:56:36;;;;;;;;;;;;;;;;;;5021451;28;19921;-64
2023/03/05 10:59:02;;;;;;;;;;;;;;;;;;5008116;28;19914;-64
2023/03/05 11:01:28;;;;;;;;;;;;;;;;;;5007792;28;19913;-64
2023/03/05 11:03:54;;;;;;;;;;;;;;;;;;5017773;28;19913;-65
2023/03/05 11:06:20;;;;;;;;;;;;;;;;;;5026908;28;19921;-63
2023/03/05 11:08:45;;;;;;;;;;;;;;;;;;5027072;28;19916;-64
2023/03/05 11:11:11;;;;;;;;;;;;;;;;;;5026989;28;19963;-64
2023/03/05 11:13:37;;;;;;;;;;;;;;;;;;5015294;28;19956;-63
2023/03/05 11:16:03;;;;;;;;;;;;;;;;;;5010863;28;20055;-63
2023/03/05 11:18:36;;;;;;;;;;;;;;;;;;5022587;28;20530;-64
2023/03/05 11:21:02;;;;;;;;;;;;;;;;;;5007782;28;20394;-63
2023/03/05 11:23:28;;;;;;;;;;;;;;;;;;5014560;28;19956;-63
2023/03/05 11:25:54;;;;;;;;;;;;;;;;;;4959411;28;1930793;-63
2023/03/05 11:28:20;;;;;;;;;;;;;;;;;;5020935;28;20004;-62
2023/03/05 11:30:46;;;;;;;;;;;;;;;;;;5027826;28;20025;-64
2023/03/05 11:33:12;;;;;;;;;;;;;;;;;;5017782;28;19918;-64
2023/03/05 11:35:37;;;;;;;;;;;;;;;;;;5014051;28;20293;-65
2023/03/05 11:38:03;;;;;;;;;;;;;;;;;;5021096;28;19917;-63
2023/03/05 11:40:29;;;;;;;;;;;;;;;;;;5013146;28;19944;-63
2023/03/05 11:42:55;;;;;;;;;;;;;;;;;;5008523;28;19920;-64
2023/03/05 11:45:21;;;;;;;;;;;;;;;;;;5009191;28;20386;-64
2023/03/05 11:47:47;;;;;;;;;;;;;;;;;;5012893;28;20373;-64
2023/03/05 11:50:13;;;;;;;;;;;;;;;;;;5011660;28;19913;-64
2023/03/05 11:52:39;;;;;;;;;;;;;;;;;;5008582;28;20467;-65
2023/03/05 11:55:05;;;;;;;;;;;;;;;;;;5010498;28;19914;-64
2023/03/05 11:57:31;;;;;;;;;;;;;;;;;;5008810;28;20338;-64
2023/03/05 11:59:56;;;;;;;;;;;;;;;;;;5008435;28;19921;-65
2023/03/05 12:02:22;;;;;;;;;;;;;;;;;;5026305;28;20008;-66
2023/03/05 12:04:48;;;;;;;;;;;;;;;;;;5008509;28;19913;-65
2023/03/05 12:07:14;;;;;;;;;;;;;;;;;;5008052;28;19968;-64
2023/03/05 12:09:40;;;;;;;;;;;;;;;;;;5014471;28;19923;-65
2023/03/05 12:12:06;;;;;;;;;;;;;;;;;;5018524;28;20044;-64
2023/03/05 12:14:32;;;;;;;;;;;;;;;;;;5007867;28;19936;-65
2023/03/05 12:16:58;;;;;;;;;;;;;;;;;;5018137;28;19913;-66
2023/03/05 12:19:24;;;;;;;;;;;;;;;;;;5027209;28;19909;-63
2023/03/05 12:21:50;;;;;;;;;;;;;;;;;;5010373;28;19910;-65
2023/03/05 12:24:15;;;;;;;;;;;;;;;;;;5023431;28;19913;-65
2023/03/05 12:26:41;;;;;;;;;;;;;;;;;;5013170;28;19933;-65
2023/03/05 12:29:07;;;;;;;;;;;;;;;;;;5011880;28;19913;-65
2023/03/05 12:31:34;;;;;;;;;;;;;;;;;;5010677;28;20020;-65
2023/03/05 12:33:59;;;;;;;;;;;;;;;;;;5011425;28;19929;-64
2023/03/05 12:36:25;;;;;;;;;;;;;;;;;;5018652;28;19975;-64
2023/03/05 12:38:51;;;;;;;;;;;;;;;;;;5029209;28;19913;-65
2023/03/05 12:41:17;;;;;;;;;;;;;;;;;;5030522;28;19952;-64
2023/03/05 12:43:43;;;;;;;;;;;;;;;;;;5015764;28;20357;-63
2023/03/05 12:46:09;;;;;;;;;;;;;;;;;;5010358;28;19928;-62
2023/03/05 12:48:35;;;;;;;;;;;;;;;;;;5011356;28;20417;-64
2023/03/05 12:51:01;;;;;;;;;;;;;;;;;;5017963;28;20130;-63
2023/03/05 12:53:27;;;;;;;;;;;;;;;;;;5030321;28;20027;-65
2023/03/05 12:55:54;;;;;;;;;;;;;;;;;;5022983;28;20714;-63
2023/03/05 12:58:20;;;;;;;;;;;;;;;;;;5010938;28;19909;-63
2023/03/05 13:00:48;;;;;;;;;;;;;;;;;;5010130;28;20004;-64
2023/03/05 13:03:14;;;;;;;;;;;;;;;;;;5023548;28;19914;-65
2023/03/05 13:05:39;;;;;;;;;;;;;;;;;;5029887;28;19935;-65
2023/03/05 13:08:05;;;;;;;;;;;;;;;;;;5029791;28;19959;-65
2023/03/05 13:10:31;;;;;;;;;;;;;;;;;;5029926;28;20305;-64
2023/03/05 13:12:57;;;;;;;;;;;;;;;;;;5018176;28;19913;-64
2023/03/05 13:15:23;;;;;;;;;;;;;;;;;;5021881;28;19909;-64
2023/03/05 13:17:49;;;;;;;;;;;;;;;;;;5029998;28;20423;-64
2023/03/05 13:20:15;;;;;;;;;;;;;;;;;;5029410;28;19913;-63
2023/03/05 13:22:41;;;;;;;;;;;;;;;;;;5013022;28;19910;-64
2023/03/05 13:25:07;;;;;;;;;;;;;;;;;;5029320;28;19996;-65
2023/03/05 13:27:33;;;;;;;;;;;;;;;;;;5019046;28;19929;-65
2023/03/05 13:29:59;;;;;;;;;;;;;;;;;;5009827;28;19917;-64
2023/03/05 13:32:25;;;;;;;;;;;;;;;;;;5009820;28;19934;-65
2023/03/05 13:34:51;;;;;;;;;;;;;;;;;;5025656;28;19913;-64
2023/03/05 13:37:17;;;;;;;;;;;;;;;;;;5020721;28;19909;-65
2023/03/05 13:39:43;;;;;;;;;;;;;;;;;;5019302;28;20460;-65
2023/03/05 13:42:09;;;;;;;;;;;;;;;;;;5010142;28;19909;-64
2023/03/05 13:44:35;;;;;;;;;;;;;;;;;;5010042;28;20641;-65
2023/03/05 13:47:00;;;;;;;;;;;;;;;;;;5009981;28;20015;-65
2023/03/05 13:49:27;;;;;;;;;;;;;;;;;;5010132;28;20013;-64
2023/03/05 13:51:53;;;;;;;;;;;;;;;;;;5024111;28;19921;-64
2023/03/05 13:54:19;;;;;;;;;;;;;;;;;;5028006;28;19913;-65
2023/03/05 13:56:45;;;;;;;;;;;;;;;;;;5016197;28;20424;-65
2023/03/05 13:59:11;;;;;;;;;;;;;;;;;;5009848;28;19920;-64
2023/03/05 14:01:37;;;;;;;;;;;;;;;;;;5010088;28;19914;-65
2023/03/05 14:04:03;;;;;;;;;;;;;;;;;;5009675;28;19918;-65
2023/03/05 14:06:29;;;;;;;;;;;;;;;;;;5009458;28;20417;-64
2023/03/05 14:08:55;;;;;;;;;;;;;;;;;;5009331;28;19917;-65
2023/03/05 14:11:22;;;;;;;;;;;;;;;;;;5009553;28;19910;-65
2023/03/05 14:13:47;;;;;;;;;;;;;;;;;;5009680;28;19913;-66
2023/03/05 14:16:13;;;;;;;;;;;;;;;;;;5009780;28;19966;-65
2023/03/05 14:18:39;;;;;;;;;;;;;;;;;;5009414;28;20394;-66
2023/03/05 14:21:06;;;;;;;;;;;;;;;;;;5026813;28;19941;-64
2023/03/05 14:23:33;;;;;;;;;;;;;;;;;;5027948;28;19924;-65
2023/03/05 14:25:58;;;;;;;;;;;;;;;;;;5027761;28;19930;-63
2023/03/05 14:28:24;;;;;;;;;;;;;;;;;;5014984;28;19921;-64
2023/03/05 14:30:51;;;;;;;;;;;;;;;;;;5011340;28;20353;-64
2023/03/05 14:33:17;;;;;;;;;;;;;;;;;;5009580;28;19936;-65
2023/03/05 14:35:42;;;;;;;;;;;;;;;;;;5015197;28;19910;-64
2023/03/05 14:38:08;;;;;;;;;;;;;;;;;;5008890;28;20361;-66
2023/03/05 14:40:34;;;;;;;;;;;;;;;;;;5008674;28;20004;-65
2023/03/05 14:43:00;;;;;;;;;;;;;;;;;;5011971;28;19921;-65
2023/03/05 14:45:26;;;;;;;;;;;;;;;;;;5008774;28;20367;-65
2023/03/05 14:47:52;;;;;;;;;;;;;;;;;;5017226;28;19913;-64
2023/03/05 14:50:18;;;;;;;;;;;;;;;;;;5025540;28;19933;-65
2023/03/05 14:52:44;;;;;;;;;;;;;;;;;;5008773;28;19914;-65
2023/03/05 14:55:10;;;;;;;;;;;;;;;;;;5008902;28;19913;-65
2023/03/05 14:57:36;;;;;;;;;;;;;;;;;;5010049;28;20408;-64
2023/03/05 15:00:02;;;;;;;;;;;;;;;;;;5026703;28;19917;-65
2023/03/05 15:02:28;;;;;;;;;;;;;;;;;;5013414;28;19924;-66
2023/03/05 15:04:54;;;;;;;;;;;;;;;;;;5008278;28;20056;-65
2023/03/05 15:07:20;;;;;;;;;;;;;;;;;;5020430;28;19999;-65
2023/03/05 15:09:46;;;;;;;;;;;;;;;;;;5008230;28;19910;-64
2023/03/05 15:12:12;;;;;;;;;;;;;;;;;;5008527;28;20442;-65
2023/03/05 15:14:39;;;;;;;;;;;;;;;;;;5027724;28;19909;-66
2023/03/05 15:17:05;;;;;;;;;;;;;;;;;;5027345;28;19913;-65
2023/03/05 15:19:31;;;;;;;;;;;;;;;;;;5027783;28;20322;-65
2023/03/05 15:21:57;;;;;;;;;;;;;;;;;;5008796;28;19914;-66
2023/03/05 15:24:22;;;;;;;;;;;;;;;;;;5019820;28;20366;-66
2023/03/05 15:26:48;;;;;;;;;;;;;;;;;;5022600;28;19925;-65
2023/03/05 15:29:14;;;;;;;;;;;;;;;;;;5022790;28;20373;-65
2023/03/05 15:31:40;;;;;;;;;;;;;;;;;;5014338;28;19910;-65
2023/03/05 15:34:06;;;;;;;;;;;;;;;;;;5016939;28;20445;-65
2023/03/05 15:36:32;;;;;;;;;;;;;;;;;;5023786;28;19920;-67
2023/03/05 15:38:58;;;;;;;;;;;;;;;;;;5026846;28;20016;-67
2023/03/05 15:41:24;;;;;;;;;;;;;;;;;;5020205;28;19963;-66
2023/03/05 15:43:50;;;;;;;;;;;;;;;;;;5027449;28;20267;-64
2023/03/05 15:46:16;;;;;;;;;;;;;;;;;;5025906;28;19961;-65
2023/03/05 15:48:48;;;;;;;;;;;;;;;;;;5020592;28;20372;-65
2023/03/05 15:51:14;;;;;;;;;;;;;;;;;;5023769;28;20298;-65
2023/03/05 15:53:40;;;;;;;;;;;;;;;;;;5008050;28;19914;-66
2023/03/05 15:56:06;;;;;;;;;;;;;;;;;;5010774;28;20015;-65
2023/03/05 15:58:32;;;;;;;;;;;;;;;;;;5027182;28;19924;-66
2023/03/05 16:00:58;;;;;;;;;;;;;;;;;;5015727;28;20655;-65
2023/03/05 16:03:24;;;;;;;;;;;;;;;;;;5029396;28;19996;-65
2023/03/05 16:05:50;;;;;;;;;;;;;;;;;;5024547;28;19968;-65
2023/03/05 16:08:15;;;;;;;;;;;;;;;;;;5011300;28;20000;-66
2023/03/05 16:10:41;;;;;;;;;;;;;;;;;;5013156;28;19916;-64
2023/03/05 16:13:07;;;;;;;;;;;;;;;;;;5012262;28;19913;-63
2023/03/05 16:15:33;;;;;;;;;;;;;;;;;;5011587;28;19921;-64
2023/03/05 16:17:59;;;;;;;;;;;;;;;;;;5011591;28;19987;-66
2023/03/05 16:20:25;;;;;;;;;;;;;;;;;;5022921;28;19917;-66
2023/03/05 16:22:51;;;;;;;;;;;;;;;;;;5021977;28;19913;-66
2023/03/05 16:25:17;;;;;;;;;;;;;;;;;;5024604;28;20007;-65
2023/03/05 16:27:43;;;;;;;;;;;;;;;;;;5031027;28;19925;-64
2023/03/05 16:30:09;;;;;;;;;;;;;;;;;;5014424;28;19920;-64
2023/03/05 16:32:35;;;;;;;;;;;;;;;;;;5014647;28;20000;-66
2023/03/05 16:35:01;;;;;;;;;;;;;;;;;;5024289;28;19948;-67
2023/03/05 16:37:26;;;;;;;;;;;;;;;;;;5023877;28;19920;-67